sensor_id;sensor_type;location;lat;lon;timestamp;P1;durP1;ratioP1;P2;durP2;ratioP2
45792;SDS011;31495;42.740;22.908;2023-11-21T00:00:17;22.67;;;10.40;;
45792;SDS011;31495;42.740;22.908;2023-11-21T00:01:17;26.48;;;9.70;;
45792;SDS011;31495;42.740;22.908;2023-11-21T00:02:16;12.88;;;7.20;;
45792;SDS011;31495;42.740;22.908;2023-11-21T00:03:16;25.40;;;11.43;;
45792;SDS011;31495;42.740;22.908;2023-11-21T00:04:15;30.50;;;13.90;;
45792;SDS011;31495;42.740;22.908;2023-11-21T00:05:14;35.22;;;15.15;;
45792;SDS011;31495;42.740;22.908;2023-11-21T00:06:13;30.48;;;14.68;;
45792;SDS011;31495;42.740;22.908;2023-11-21T00:07:14;27.02;;;14.00;;
45792;SDS011;31495;42.740;22.908;2023-11-21T00:08:14;27.17;;;14.15;;
45792;SDS011;31495;42.740;22.908;2023-11-21T00:09:13;32.00;;;15.18;;
45792;SDS011;31495;42.740;22.908;2023-11-21T00:10:15;37.60;;;14.95;;
45792;SDS011;31495;42.740;22.908;2023-11-21T00:11:14;28.05;;;13.70;;
45792;SDS011;31495;42.740;22.908;2023-11-21T00:12:14;31.88;;;14.95;;
45792;SDS011;31495;42.740;22.908;2023-11-21T00:13:14;35.75;;;16.17;;
45792;SDS011;31495;42.740;22.908;2023-11-21T00:14:13;29.10;;;14.00;;
45792;SDS011;31495;42.740;22.908;2023-11-21T00:15:14;27.58;;;14.82;;
45792;SDS011;31495;42.740;22.908;2023-11-21T00:16:14;29.83;;;14.35;;
45792;SDS011;31495;42.740;22.908;2023-11-21T00:17:13;33.45;;;17.42;;
45792;SDS011;31495;42.740;22.908;2023-11-21T00:18:13;35.17;;;21.15;;
45792;SDS011;31495;42.740;22.908;2023-11-21T00:19:13;51.30;;;28.38;;
45792;SDS011;31495;42.740;22.908;2023-11-21T00:20:12;46.67;;;28.15;;
45792;SDS011;31495;42.740;22.908;2023-11-21T00:21:13;46.15;;;26.77;;
45792;SDS011;31495;42.740;22.908;2023-11-21T00:22:12;42.22;;;25.05;;
45792;SDS011;31495;42.740;22.908;2023-11-21T00:23:11;41.72;;;22.90;;
45792;SDS011;31495;42.740;22.908;2023-11-21T00:24:11;30.33;;;18.23;;
45792;SDS011;31495;42.740;22.908;2023-11-21T00:26:14;27.13;;;13.40;;
45792;SDS011;31495;42.740;22.908;2023-11-21T00:27:13;24.17;;;13.63;;
45792;SDS011;31495;42.740;22.908;2023-11-21T00:28:13;18.23;;;10.75;;
45792;SDS011;31495;42.740;22.908;2023-11-21T00:29:13;21.13;;;11.00;;
45792;SDS011;31495;42.740;22.908;2023-11-21T00:30:13;25.58;;;11.20;;
45792;SDS011;31495;42.740;22.908;2023-11-21T00:31:13;16.30;;;9.27;;
45792;SDS011;31495;42.740;22.908;2023-11-21T00:32:13;17.38;;;9.30;;
45792;SDS011;31495;42.740;22.908;2023-11-21T00:33:12;17.58;;;8.82;;
45792;SDS011;31495;42.740;22.908;2023-11-21T00:34:12;18.73;;;9.45;;
45792;SDS011;31495;42.740;22.908;2023-11-21T00:35:11;20.05;;;9.43;;
45792;SDS011;31495;42.740;22.908;2023-11-21T00:36:11;19.45;;;9.88;;
45792;SDS011;31495;42.740;22.908;2023-11-21T00:37:10;25.67;;;11.57;;
45792;SDS011;31495;42.740;22.908;2023-11-21T00:38:10;30.48;;;13.73;;
45792;SDS011;31495;42.740;22.908;2023-11-21T00:39:10;23.50;;;10.95;;
45792;SDS011;31495;42.740;22.908;2023-11-21T00:40:10;29.75;;;12.38;;
45792;SDS011;31495;42.740;22.908;2023-11-21T00:41:11;22.33;;;11.32;;
45792;SDS011;31495;42.740;22.908;2023-11-21T00:42:10;26.08;;;12.30;;
45792;SDS011;31495;42.740;22.908;2023-11-21T00:43:10;22.80;;;10.73;;
45792;SDS011;31495;42.740;22.908;2023-11-21T00:44:10;23.52;;;11.07;;
45792;SDS011;31495;42.740;22.908;2023-11-21T00:45:10;18.25;;;8.57;;
45792;SDS011;31495;42.740;22.908;2023-11-21T00:46:10;19.13;;;9.23;;
45792;SDS011;31495;42.740;22.908;2023-11-21T00:47:09;21.15;;;10.23;;
45792;SDS011;31495;42.740;22.908;2023-11-21T00:48:09;21.55;;;10.30;;
45792;SDS011;31495;42.740;22.908;2023-11-21T00:49:08;19.88;;;10.18;;
45792;SDS011;31495;42.740;22.908;2023-11-21T00:50:08;24.08;;;10.88;;
45792;SDS011;31495;42.740;22.908;2023-11-21T00:51:09;19.02;;;9.07;;
45792;SDS011;31495;42.740;22.908;2023-11-21T00:52:08;21.83;;;9.73;;
45792;SDS011;31495;42.740;22.908;2023-11-21T00:53:08;17.95;;;8.55;;
45792;SDS011;31495;42.740;22.908;2023-11-21T00:54:07;16.42;;;7.55;;
45792;SDS011;31495;42.740;22.908;2023-11-21T00:55:07;19.60;;;6.60;;
45792;SDS011;31495;42.740;22.908;2023-11-21T00:56:07;20.38;;;6.55;;
45792;SDS011;31495;42.740;22.908;2023-11-21T00:57:07;15.70;;;6.97;;
45792;SDS011;31495;42.740;22.908;2023-11-21T00:58:08;13.70;;;6.10;;
45792;SDS011;31495;42.740;22.908;2023-11-21T00:59:07;20.17;;;7.00;;
45792;SDS011;31495;42.740;22.908;2023-11-21T01:00:07;14.90;;;6.55;;
45792;SDS011;31495;42.740;22.908;2023-11-21T01:01:12;19.20;;;6.55;;
45792;SDS011;31495;42.740;22.908;2023-11-21T01:02:12;17.92;;;7.03;;
45792;SDS011;31495;42.740;22.908;2023-11-21T01:03:11;14.70;;;6.25;;
45792;SDS011;31495;42.740;22.908;2023-11-21T01:04:11;13.98;;;5.85;;
45792;SDS011;31495;42.740;22.908;2023-11-21T01:05:11;12.70;;;6.47;;
45792;SDS011;31495;42.740;22.908;2023-11-21T01:06:10;11.77;;;6.40;;
45792;SDS011;31495;42.740;22.908;2023-11-21T01:07:09;11.88;;;6.43;;
45792;SDS011;31495;42.740;22.908;2023-11-21T01:08:09;17.45;;;7.40;;
45792;SDS011;31495;42.740;22.908;2023-11-21T01:09:10;20.02;;;7.32;;
45792;SDS011;31495;42.740;22.908;2023-11-21T01:10:09;9.93;;;5.45;;
45792;SDS011;31495;42.740;22.908;2023-11-21T01:11:08;11.57;;;4.45;;
45792;SDS011;31495;42.740;22.908;2023-11-21T01:12:09;10.18;;;4.70;;
45792;SDS011;31495;42.740;22.908;2023-11-21T01:13:09;7.25;;;3.78;;
45792;SDS011;31495;42.740;22.908;2023-11-21T01:14:09;8.45;;;4.10;;
45792;SDS011;31495;42.740;22.908;2023-11-21T01:15:10;6.95;;;4.25;;
45792;SDS011;31495;42.740;22.908;2023-11-21T01:16:11;9.30;;;5.13;;
45792;SDS011;31495;42.740;22.908;2023-11-21T01:17:10;7.55;;;4.05;;
45792;SDS011;31495;42.740;22.908;2023-11-21T01:18:10;8.50;;;4.28;;
45792;SDS011;31495;42.740;22.908;2023-11-21T01:19:09;7.15;;;3.30;;
45792;SDS011;31495;42.740;22.908;2023-11-21T01:20:09;7.85;;;3.45;;
45792;SDS011;31495;42.740;22.908;2023-11-21T01:21:12;7.05;;;3.58;;
45792;SDS011;31495;42.740;22.908;2023-11-21T01:22:11;18.33;;;5.22;;
45792;SDS011;31495;42.740;22.908;2023-11-21T01:23:11;11.25;;;4.55;;
45792;SDS011;31495;42.740;22.908;2023-11-21T01:24:11;13.73;;;5.72;;
45792;SDS011;31495;42.740;22.908;2023-11-21T01:25:10;10.13;;;5.75;;
45792;SDS011;31495;42.740;22.908;2023-11-21T01:26:10;11.60;;;5.43;;
45792;SDS011;31495;42.740;22.908;2023-11-21T01:27:09;10.57;;;5.97;;
45792;SDS011;31495;42.740;22.908;2023-11-21T01:28:09;12.82;;;6.65;;
45792;SDS011;31495;42.740;22.908;2023-11-21T01:29:09;12.77;;;5.78;;
45792;SDS011;31495;42.740;22.908;2023-11-21T01:30:09;13.23;;;6.82;;
45792;SDS011;31495;42.740;22.908;2023-11-21T01:31:09;13.45;;;5.97;;
45792;SDS011;31495;42.740;22.908;2023-11-21T01:32:09;13.43;;;6.00;;
45792;SDS011;31495;42.740;22.908;2023-11-21T01:33:09;13.73;;;7.15;;
45792;SDS011;31495;42.740;22.908;2023-11-21T01:34:09;16.90;;;6.95;;
45792;SDS011;31495;42.740;22.908;2023-11-21T01:35:09;15.63;;;6.97;;
45792;SDS011;31495;42.740;22.908;2023-11-21T01:36:09;12.10;;;6.88;;
45792;SDS011;31495;42.740;22.908;2023-11-21T01:37:10;14.73;;;7.47;;
45792;SDS011;31495;42.740;22.908;2023-11-21T01:38:11;18.65;;;8.60;;
45792;SDS011;31495;42.740;22.908;2023-11-21T01:39:10;16.58;;;8.55;;
45792;SDS011;31495;42.740;22.908;2023-11-21T01:40:13;20.45;;;9.55;;
45792;SDS011;31495;42.740;22.908;2023-11-21T01:41:13;15.95;;;8.88;;
45792;SDS011;31495;42.740;22.908;2023-11-21T01:42:13;21.65;;;9.82;;
45792;SDS011;31495;42.740;22.908;2023-11-21T01:43:12;22.27;;;9.85;;
45792;SDS011;31495;42.740;22.908;2023-11-21T01:44:11;21.10;;;10.77;;
45792;SDS011;31495;42.740;22.908;2023-11-21T01:45:12;20.15;;;10.30;;
45792;SDS011;31495;42.740;22.908;2023-11-21T01:46:12;18.48;;;9.20;;
45792;SDS011;31495;42.740;22.908;2023-11-21T01:47:11;21.15;;;10.27;;
45792;SDS011;31495;42.740;22.908;2023-11-21T01:48:13;16.23;;;9.20;;
45792;SDS011;31495;42.740;22.908;2023-11-21T01:49:13;19.30;;;9.85;;
45792;SDS011;31495;42.740;22.908;2023-11-21T01:50:15;17.05;;;9.13;;
45792;SDS011;31495;42.740;22.908;2023-11-21T01:51:16;20.08;;;10.18;;
45792;SDS011;31495;42.740;22.908;2023-11-21T01:52:17;23.75;;;10.18;;
45792;SDS011;31495;42.740;22.908;2023-11-21T01:53:17;18.67;;;10.27;;
45792;SDS011;31495;42.740;22.908;2023-11-21T01:54:17;18.00;;;10.60;;
45792;SDS011;31495;42.740;22.908;2023-11-21T01:55:18;22.67;;;10.05;;
45792;SDS011;31495;42.740;22.908;2023-11-21T01:56:18;19.17;;;10.70;;
45792;SDS011;31495;42.740;22.908;2023-11-21T01:57:19;20.05;;;11.25;;
45792;SDS011;31495;42.740;22.908;2023-11-21T01:58:19;23.65;;;9.35;;
45792;SDS011;31495;42.740;22.908;2023-11-21T01:59:20;23.60;;;10.07;;
45792;SDS011;31495;42.740;22.908;2023-11-21T02:00:23;16.00;;;8.95;;
45792;SDS011;31495;42.740;22.908;2023-11-21T02:01:22;19.17;;;9.48;;
45792;SDS011;31495;42.740;22.908;2023-11-21T02:02:22;19.00;;;9.55;;
45792;SDS011;31495;42.740;22.908;2023-11-21T02:03:21;18.77;;;9.77;;
45792;SDS011;31495;42.740;22.908;2023-11-21T02:04:21;17.33;;;9.20;;
45792;SDS011;31495;42.740;22.908;2023-11-21T02:05:20;19.27;;;8.52;;
45792;SDS011;31495;42.740;22.908;2023-11-21T02:06:20;19.02;;;8.30;;
45792;SDS011;31495;42.740;22.908;2023-11-21T02:07:21;18.05;;;7.40;;
45792;SDS011;31495;42.740;22.908;2023-11-21T02:08:22;17.38;;;8.07;;
45792;SDS011;31495;42.740;22.908;2023-11-21T02:09:28;15.70;;;8.00;;
45792;SDS011;31495;42.740;22.908;2023-11-21T02:10:29;15.20;;;7.57;;
45792;SDS011;31495;42.740;22.908;2023-11-21T02:11:30;15.68;;;8.18;;
45792;SDS011;31495;42.740;22.908;2023-11-21T02:12:30;14.10;;;6.93;;
45792;SDS011;31495;42.740;22.908;2023-11-21T02:13:29;18.40;;;7.32;;
45792;SDS011;31495;42.740;22.908;2023-11-21T02:14:28;20.15;;;8.73;;
45792;SDS011;31495;42.740;22.908;2023-11-21T02:15:28;18.48;;;7.97;;
45792;SDS011;31495;42.740;22.908;2023-11-21T02:16:28;15.07;;;8.70;;
45792;SDS011;31495;42.740;22.908;2023-11-21T02:17:30;13.05;;;7.00;;
45792;SDS011;31495;42.740;22.908;2023-11-21T02:18:31;12.57;;;7.40;;
45792;SDS011;31495;42.740;22.908;2023-11-21T02:19:31;14.77;;;7.10;;
45792;SDS011;31495;42.740;22.908;2023-11-21T02:20:31;15.13;;;6.97;;
45792;SDS011;31495;42.740;22.908;2023-11-21T02:21:34;15.63;;;7.45;;
45792;SDS011;31495;42.740;22.908;2023-11-21T02:22:35;19.45;;;8.80;;
45792;SDS011;31495;42.740;22.908;2023-11-21T02:23:38;17.33;;;8.13;;
45792;SDS011;31495;42.740;22.908;2023-11-21T02:24:41;18.00;;;8.88;;
45792;SDS011;31495;42.740;22.908;2023-11-21T02:25:42;20.48;;;8.27;;
45792;SDS011;31495;42.740;22.908;2023-11-21T02:26:42;17.67;;;8.25;;
45792;SDS011;31495;42.740;22.908;2023-11-21T02:27:41;16.40;;;6.63;;
45792;SDS011;31495;42.740;22.908;2023-11-21T02:28:42;13.70;;;5.68;;
45792;SDS011;31495;42.740;22.908;2023-11-21T02:29:41;18.17;;;5.72;;
45792;SDS011;31495;42.740;22.908;2023-11-21T02:30:42;11.30;;;5.30;;
45792;SDS011;31495;42.740;22.908;2023-11-21T02:31:45;20.65;;;5.45;;
45792;SDS011;31495;42.740;22.908;2023-11-21T02:32:47;10.48;;;5.20;;
45792;SDS011;31495;42.740;22.908;2023-11-21T02:33:52;17.70;;;5.80;;
45792;SDS011;31495;42.740;22.908;2023-11-21T02:34:52;15.50;;;7.35;;
45792;SDS011;31495;42.740;22.908;2023-11-21T02:35:55;15.63;;;6.47;;
45792;SDS011;31495;42.740;22.908;2023-11-21T02:36:54;17.73;;;7.30;;
45792;SDS011;31495;42.740;22.908;2023-11-21T02:37:54;19.63;;;7.82;;
45792;SDS011;31495;42.740;22.908;2023-11-21T02:38:54;22.38;;;10.23;;
45792;SDS011;31495;42.740;22.908;2023-11-21T02:39:54;17.63;;;8.73;;
45792;SDS011;31495;42.740;22.908;2023-11-21T02:40:53;22.38;;;9.75;;
45792;SDS011;31495;42.740;22.908;2023-11-21T02:41:53;20.25;;;9.18;;
45792;SDS011;31495;42.740;22.908;2023-11-21T02:42:52;21.95;;;12.02;;
45792;SDS011;31495;42.740;22.908;2023-11-21T02:43:52;25.88;;;9.30;;
45792;SDS011;31495;42.740;22.908;2023-11-21T02:44:51;16.95;;;8.65;;
45792;SDS011;31495;42.740;22.908;2023-11-21T02:45:51;15.93;;;8.43;;
45792;SDS011;31495;42.740;22.908;2023-11-21T02:46:51;20.70;;;9.90;;
45792;SDS011;31495;42.740;22.908;2023-11-21T02:47:50;17.90;;;8.85;;
45792;SDS011;31495;42.740;22.908;2023-11-21T02:48:52;24.48;;;9.75;;
45792;SDS011;31495;42.740;22.908;2023-11-21T02:49:55;19.48;;;10.23;;
45792;SDS011;31495;42.740;22.908;2023-11-21T02:50:55;19.30;;;8.73;;
45792;SDS011;31495;42.740;22.908;2023-11-21T02:51:54;18.35;;;7.43;;
45792;SDS011;31495;42.740;22.908;2023-11-21T02:52:54;18.15;;;8.90;;
45792;SDS011;31495;42.740;22.908;2023-11-21T02:53:53;21.70;;;9.13;;
45792;SDS011;31495;42.740;22.908;2023-11-21T02:54:53;18.50;;;7.55;;
45792;SDS011;31495;42.740;22.908;2023-11-21T02:55:53;13.75;;;7.55;;
45792;SDS011;31495;42.740;22.908;2023-11-21T02:56:52;16.63;;;6.18;;
45792;SDS011;31495;42.740;22.908;2023-11-21T02:57:51;16.27;;;6.90;;
45792;SDS011;31495;42.740;22.908;2023-11-21T02:58:51;11.48;;;5.75;;
45792;SDS011;31495;42.740;22.908;2023-11-21T02:59:50;15.43;;;6.90;;
45792;SDS011;31495;42.740;22.908;2023-11-21T03:00:50;11.32;;;5.65;;
45792;SDS011;31495;42.740;22.908;2023-11-21T03:01:50;19.25;;;6.78;;
45792;SDS011;31495;42.740;22.908;2023-11-21T03:02:50;16.25;;;6.88;;
45792;SDS011;31495;42.740;22.908;2023-11-21T03:03:49;14.15;;;6.50;;
45792;SDS011;31495;42.740;22.908;2023-11-21T03:04:50;12.82;;;6.70;;
45792;SDS011;31495;42.740;22.908;2023-11-21T03:05:49;11.10;;;5.57;;
45792;SDS011;31495;42.740;22.908;2023-11-21T03:06:49;12.05;;;5.30;;
45792;SDS011;31495;42.740;22.908;2023-11-21T03:07:48;9.25;;;5.70;;
45792;SDS011;31495;42.740;22.908;2023-11-21T03:08:47;15.52;;;7.75;;
45792;SDS011;31495;42.740;22.908;2023-11-21T03:09:47;19.63;;;6.25;;
45792;SDS011;31495;42.740;22.908;2023-11-21T03:10:47;26.63;;;12.35;;
45792;SDS011;31495;42.740;22.908;2023-11-21T03:11:47;24.80;;;13.18;;
45792;SDS011;31495;42.740;22.908;2023-11-21T03:12:47;23.08;;;13.05;;
45792;SDS011;31495;42.740;22.908;2023-11-21T03:13:47;26.17;;;13.68;;
45792;SDS011;31495;42.740;22.908;2023-11-21T03:14:47;20.48;;;13.05;;
45792;SDS011;31495;42.740;22.908;2023-11-21T03:15:47;27.80;;;14.10;;
45792;SDS011;31495;42.740;22.908;2023-11-21T03:16:47;22.83;;;12.40;;
45792;SDS011;31495;42.740;22.908;2023-11-21T03:17:48;25.30;;;12.65;;
45792;SDS011;31495;42.740;22.908;2023-11-21T03:18:48;21.27;;;13.13;;
45792;SDS011;31495;42.740;22.908;2023-11-21T03:19:48;23.27;;;11.88;;
45792;SDS011;31495;42.740;22.908;2023-11-21T03:20:48;18.70;;;11.52;;
45792;SDS011;31495;42.740;22.908;2023-11-21T03:21:48;17.50;;;10.40;;
45792;SDS011;31495;42.740;22.908;2023-11-21T03:22:48;18.70;;;11.25;;
45792;SDS011;31495;42.740;22.908;2023-11-21T03:23:48;20.88;;;12.63;;
45792;SDS011;31495;42.740;22.908;2023-11-21T03:24:48;25.70;;;13.73;;
45792;SDS011;31495;42.740;22.908;2023-11-21T03:25:48;29.73;;;15.25;;
45792;SDS011;31495;42.740;22.908;2023-11-21T03:26:48;33.85;;;17.27;;
45792;SDS011;31495;42.740;22.908;2023-11-21T03:27:48;38.22;;;17.70;;
45792;SDS011;31495;42.740;22.908;2023-11-21T03:28:47;35.08;;;15.90;;
45792;SDS011;31495;42.740;22.908;2023-11-21T03:29:48;29.00;;;13.63;;
45792;SDS011;31495;42.740;22.908;2023-11-21T03:30:48;24.70;;;11.63;;
45792;SDS011;31495;42.740;22.908;2023-11-21T03:31:49;26.73;;;11.32;;
45792;SDS011;31495;42.740;22.908;2023-11-21T03:32:49;26.45;;;9.90;;
45792;SDS011;31495;42.740;22.908;2023-11-21T03:33:49;19.27;;;9.20;;
45792;SDS011;31495;42.740;22.908;2023-11-21T03:34:58;18.02;;;7.80;;
45792;SDS011;31495;42.740;22.908;2023-11-21T03:35:58;18.63;;;8.02;;
45792;SDS011;31495;42.740;22.908;2023-11-21T03:36:57;15.98;;;7.75;;
45792;SDS011;31495;42.740;22.908;2023-11-21T03:37:57;14.57;;;7.35;;
45792;SDS011;31495;42.740;22.908;2023-11-21T03:38:57;15.55;;;6.60;;
45792;SDS011;31495;42.740;22.908;2023-11-21T03:39:57;17.08;;;7.35;;
45792;SDS011;31495;42.740;22.908;2023-11-21T03:40:56;13.68;;;6.75;;
45792;SDS011;31495;42.740;22.908;2023-11-21T03:41:56;17.13;;;7.75;;
45792;SDS011;31495;42.740;22.908;2023-11-21T03:42:55;14.45;;;7.30;;
45792;SDS011;31495;42.740;22.908;2023-11-21T03:43:54;17.00;;;7.40;;
45792;SDS011;31495;42.740;22.908;2023-11-21T03:44:54;16.05;;;7.22;;
45792;SDS011;31495;42.740;22.908;2023-11-21T03:45:54;14.15;;;6.60;;
45792;SDS011;31495;42.740;22.908;2023-11-21T03:46:53;11.48;;;6.07;;
45792;SDS011;31495;42.740;22.908;2023-11-21T03:47:53;17.70;;;6.32;;
45792;SDS011;31495;42.740;22.908;2023-11-21T03:48:52;15.48;;;5.97;;
45792;SDS011;31495;42.740;22.908;2023-11-21T03:49:53;13.35;;;6.38;;
45792;SDS011;31495;42.740;22.908;2023-11-21T03:50:53;17.23;;;6.40;;
45792;SDS011;31495;42.740;22.908;2023-11-21T03:51:52;16.27;;;6.88;;
45792;SDS011;31495;42.740;22.908;2023-11-21T03:52:52;16.75;;;7.85;;
45792;SDS011;31495;42.740;22.908;2023-11-21T03:53:51;18.60;;;6.43;;
45792;SDS011;31495;42.740;22.908;2023-11-21T03:54:50;15.20;;;7.40;;
45792;SDS011;31495;42.740;22.908;2023-11-21T03:55:50;14.18;;;6.65;;
45792;SDS011;31495;42.740;22.908;2023-11-21T03:56:50;13.95;;;6.97;;
45792;SDS011;31495;42.740;22.908;2023-11-21T03:57:51;11.98;;;6.43;;
45792;SDS011;31495;42.740;22.908;2023-11-21T03:58:51;14.93;;;6.22;;
45792;SDS011;31495;42.740;22.908;2023-11-21T03:59:51;15.20;;;5.93;;
45792;SDS011;31495;42.740;22.908;2023-11-21T04:00:51;10.77;;;5.20;;
45792;SDS011;31495;42.740;22.908;2023-11-21T04:01:51;11.32;;;5.35;;
45792;SDS011;31495;42.740;22.908;2023-11-21T04:02:51;16.25;;;5.97;;
45792;SDS011;31495;42.740;22.908;2023-11-21T04:03:51;14.10;;;6.93;;
45792;SDS011;31495;42.740;22.908;2023-11-21T04:04:51;15.73;;;7.55;;
45792;SDS011;31495;42.740;22.908;2023-11-21T04:05:51;16.60;;;7.50;;
45792;SDS011;31495;42.740;22.908;2023-11-21T04:06:52;14.55;;;7.70;;
45792;SDS011;31495;42.740;22.908;2023-11-21T04:07:51;15.77;;;7.68;;
45792;SDS011;31495;42.740;22.908;2023-11-21T04:08:51;12.18;;;6.38;;
45792;SDS011;31495;42.740;22.908;2023-11-21T04:09:51;16.00;;;6.97;;
45792;SDS011;31495;42.740;22.908;2023-11-21T04:10:51;13.32;;;7.13;;
45792;SDS011;31495;42.740;22.908;2023-11-21T04:11:52;13.73;;;6.57;;
45792;SDS011;31495;42.740;22.908;2023-11-21T04:12:52;17.08;;;8.68;;
45792;SDS011;31495;42.740;22.908;2023-11-21T04:13:52;15.27;;;7.35;;
45792;SDS011;31495;42.740;22.908;2023-11-21T04:14:52;19.70;;;7.72;;
45792;SDS011;31495;42.740;22.908;2023-11-21T04:15:52;15.57;;;8.73;;
45792;SDS011;31495;42.740;22.908;2023-11-21T04:16:52;13.38;;;7.13;;
45792;SDS011;31495;42.740;22.908;2023-11-21T04:17:52;18.30;;;8.27;;
45792;SDS011;31495;42.740;22.908;2023-11-21T04:18:52;12.93;;;7.80;;
45792;SDS011;31495;42.740;22.908;2023-11-21T04:19:52;16.23;;;7.47;;
45792;SDS011;31495;42.740;22.908;2023-11-21T04:20:52;15.27;;;8.77;;
45792;SDS011;31495;42.740;22.908;2023-11-21T04:21:52;15.20;;;8.52;;
45792;SDS011;31495;42.740;22.908;2023-11-21T04:22:53;17.83;;;9.07;;
45792;SDS011;31495;42.740;22.908;2023-11-21T04:23:53;19.00;;;10.68;;
45792;SDS011;31495;42.740;22.908;2023-11-21T04:24:53;20.88;;;10.48;;
45792;SDS011;31495;42.740;22.908;2023-11-21T04:25:53;22.80;;;11.00;;
45792;SDS011;31495;42.740;22.908;2023-11-21T04:26:55;18.52;;;10.32;;
45792;SDS011;31495;42.740;22.908;2023-11-21T04:27:54;22.42;;;10.55;;
45792;SDS011;31495;42.740;22.908;2023-11-21T04:28:54;19.45;;;11.82;;
45792;SDS011;31495;42.740;22.908;2023-11-21T04:29:53;23.45;;;11.05;;
45792;SDS011;31495;42.740;22.908;2023-11-21T04:30:53;17.58;;;9.05;;
45792;SDS011;31495;42.740;22.908;2023-11-21T04:31:53;12.45;;;6.47;;
45792;SDS011;31495;42.740;22.908;2023-11-21T04:32:53;13.45;;;7.00;;
45792;SDS011;31495;42.740;22.908;2023-11-21T04:33:53;17.02;;;8.43;;
45792;SDS011;31495;42.740;22.908;2023-11-21T04:34:53;26.00;;;11.10;;
45792;SDS011;31495;42.740;22.908;2023-11-21T04:35:54;20.85;;;10.93;;
45792;SDS011;31495;42.740;22.908;2023-11-21T04:36:56;27.15;;;13.57;;
45792;SDS011;31495;42.740;22.908;2023-11-21T04:37:56;25.35;;;13.90;;
45792;SDS011;31495;42.740;22.908;2023-11-21T04:38:56;27.63;;;13.57;;
45792;SDS011;31495;42.740;22.908;2023-11-21T04:39:56;23.50;;;13.05;;
45792;SDS011;31495;42.740;22.908;2023-11-21T04:40:55;17.60;;;9.63;;
45792;SDS011;31495;42.740;22.908;2023-11-21T04:41:55;19.10;;;10.80;;
45792;SDS011;31495;42.740;22.908;2023-11-21T04:42:54;26.73;;;12.05;;
45792;SDS011;31495;42.740;22.908;2023-11-21T04:43:54;20.00;;;11.07;;
45792;SDS011;31495;42.740;22.908;2023-11-21T04:44:54;20.10;;;9.98;;
45792;SDS011;31495;42.740;22.908;2023-11-21T04:45:55;20.48;;;9.95;;
45792;SDS011;31495;42.740;22.908;2023-11-21T04:46:55;17.23;;;9.85;;
45792;SDS011;31495;42.740;22.908;2023-11-21T04:47:55;23.88;;;9.02;;
45792;SDS011;31495;42.740;22.908;2023-11-21T04:48:55;20.10;;;9.93;;
45792;SDS011;31495;42.740;22.908;2023-11-21T04:49:55;24.23;;;11.52;;
45792;SDS011;31495;42.740;22.908;2023-11-21T04:50:55;17.65;;;8.85;;
45792;SDS011;31495;42.740;22.908;2023-11-21T04:51:55;17.88;;;10.07;;
45792;SDS011;31495;42.740;22.908;2023-11-21T04:52:55;23.05;;;10.88;;
45792;SDS011;31495;42.740;22.908;2023-11-21T04:53:55;20.33;;;8.30;;
45792;SDS011;31495;42.740;22.908;2023-11-21T04:54:55;19.95;;;8.70;;
45792;SDS011;31495;42.740;22.908;2023-11-21T04:55:57;18.05;;;8.32;;
45792;SDS011;31495;42.740;22.908;2023-11-21T04:56:57;16.13;;;8.60;;
45792;SDS011;31495;42.740;22.908;2023-11-21T04:57:56;17.40;;;8.00;;
45792;SDS011;31495;42.740;22.908;2023-11-21T04:58:55;16.25;;;8.65;;
45792;SDS011;31495;42.740;22.908;2023-11-21T04:59:55;21.50;;;10.32;;
45792;SDS011;31495;42.740;22.908;2023-11-21T05:00:55;20.38;;;9.45;;
45792;SDS011;31495;42.740;22.908;2023-11-21T05:01:56;21.70;;;10.48;;
45792;SDS011;31495;42.740;22.908;2023-11-21T05:02:56;24.60;;;12.20;;
45792;SDS011;31495;42.740;22.908;2023-11-21T05:03:56;29.50;;;13.10;;
45792;SDS011;31495;42.740;22.908;2023-11-21T05:04:56;25.92;;;11.40;;
45792;SDS011;31495;42.740;22.908;2023-11-21T05:05:56;17.70;;;10.05;;
45792;SDS011;31495;42.740;22.908;2023-11-21T05:06:56;16.88;;;9.68;;
45792;SDS011;31495;42.740;22.908;2023-11-21T05:07:56;27.20;;;11.07;;
45792;SDS011;31495;42.740;22.908;2023-11-21T05:08:56;59.83;;;21.95;;
45792;SDS011;31495;42.740;22.908;2023-11-21T05:09:56;44.08;;;17.73;;
45792;SDS011;31495;42.740;22.908;2023-11-21T05:10:55;52.53;;;20.58;;
45792;SDS011;31495;42.740;22.908;2023-11-21T05:11:56;72.97;;;26.25;;
45792;SDS011;31495;42.740;22.908;2023-11-21T05:12:56;60.40;;;25.55;;
45792;SDS011;31495;42.740;22.908;2023-11-21T05:13:57;65.18;;;25.55;;
45792;SDS011;31495;42.740;22.908;2023-11-21T05:14:58;49.20;;;22.50;;
45792;SDS011;31495;42.740;22.908;2023-11-21T05:15:57;44.88;;;19.98;;
45792;SDS011;31495;42.740;22.908;2023-11-21T05:16:57;62.03;;;24.17;;
45792;SDS011;31495;42.740;22.908;2023-11-21T05:17:57;59.97;;;24.67;;
45792;SDS011;31495;42.740;22.908;2023-11-21T05:18:59;51.15;;;21.55;;
45792;SDS011;31495;42.740;22.908;2023-11-21T05:20:00;28.13;;;12.05;;
45792;SDS011;31495;42.740;22.908;2023-11-21T05:21:02;34.13;;;14.13;;
45792;SDS011;31495;42.740;22.908;2023-11-21T05:22:02;22.15;;;12.20;;
45792;SDS011;31495;42.740;22.908;2023-11-21T05:23:03;65.13;;;32.40;;
45792;SDS011;31495;42.740;22.908;2023-11-21T05:24:02;89.90;;;40.05;;
45792;SDS011;31495;42.740;22.908;2023-11-21T05:25:02;82.80;;;36.83;;
45792;SDS011;31495;42.740;22.908;2023-11-21T05:26:03;77.53;;;37.50;;
45792;SDS011;31495;42.740;22.908;2023-11-21T05:27:03;74.32;;;34.45;;
45792;SDS011;31495;42.740;22.908;2023-11-21T05:28:03;57.60;;;27.55;;
45792;SDS011;31495;42.740;22.908;2023-11-21T05:29:03;56.75;;;25.70;;
45792;SDS011;31495;42.740;22.908;2023-11-21T05:30:03;59.30;;;23.73;;
45792;SDS011;31495;42.740;22.908;2023-11-21T05:31:04;50.10;;;20.00;;
45792;SDS011;31495;42.740;22.908;2023-11-21T05:32:04;45.97;;;23.52;;
45792;SDS011;31495;42.740;22.908;2023-11-21T05:33:04;39.67;;;19.50;;
45792;SDS011;31495;42.740;22.908;2023-11-21T05:34:04;44.05;;;20.70;;
45792;SDS011;31495;42.740;22.908;2023-11-21T05:35:07;45.72;;;22.58;;
45792;SDS011;31495;42.740;22.908;2023-11-21T05:36:11;29.50;;;15.05;;
45792;SDS011;31495;42.740;22.908;2023-11-21T05:37:13;29.92;;;14.02;;
45792;SDS011;31495;42.740;22.908;2023-11-21T05:38:13;27.63;;;16.23;;
45792;SDS011;31495;42.740;22.908;2023-11-21T05:39:13;45.78;;;21.10;;
45792;SDS011;31495;42.740;22.908;2023-11-21T05:40:13;45.55;;;23.70;;
45792;SDS011;31495;42.740;22.908;2023-11-21T05:41:13;52.38;;;25.70;;
45792;SDS011;31495;42.740;22.908;2023-11-21T05:42:12;49.70;;;24.52;;
45792;SDS011;31495;42.740;22.908;2023-11-21T05:43:11;48.22;;;23.83;;
45792;SDS011;31495;42.740;22.908;2023-11-21T05:44:11;30.90;;;19.17;;
45792;SDS011;31495;42.740;22.908;2023-11-21T05:45:14;37.97;;;20.20;;
45792;SDS011;31495;42.740;22.908;2023-11-21T05:46:14;47.28;;;19.60;;
45792;SDS011;31495;42.740;22.908;2023-11-21T05:47:14;40.22;;;19.25;;
45792;SDS011;31495;42.740;22.908;2023-11-21T05:48:14;38.28;;;18.65;;
45792;SDS011;31495;42.740;22.908;2023-11-21T05:49:15;34.40;;;17.67;;
45792;SDS011;31495;42.740;22.908;2023-11-21T05:50:15;35.00;;;18.95;;